• Join FlightAware (Why Join?)
  • Login
  • US Flag 
05:29AM EDT


 

Airport Tracker/Info


-or-


 

Live Flight TrackerFlight Track Log ✈ UAL5822 ✈ 25-Apr-2013 ✈ KORD - KTYS

Flight Track Log - Related Links

Times and Time Zones

All times are in EDT time to prevent confusion due to time zone crossing. See the UAL5822 flight status page for this flight to view local times or setup timezone preferences in your user account.

Time Position Orientation Groundspeed Altitude Reporting Facility
EDT Latitude Longitude Course Direction KTS MPH feet Rate Location/Type
10:53AM 41.7456 -87.7836 151° Southeast 275 316 8,600  Level Chicago Center
10:54AM 41.6714 -87.7361 154° Southeast 290 334 10,800 2,040 Climbing Chicago Center
10:55AM 41.5919 -87.6819 153° Southeast 311 358 12,900 1,260 Climbing Chicago Center
10:56AM 41.5019 -87.6247 155° Southeast 347 399 13,500 600 Climbing Chicago Center
10:57AM 41.3758 -87.5636 160° South 405 466 14,200 720 Climbing Chicago Center
10:58AM 41.2625 -87.5442 173° South 410 472 15,000 1,080 Climbing Chicago Center
10:59AM 41.1489 -87.5203 171° South 412 474 16,500 1,320 Climbing Chicago Center
11:00AM 41.0383 -87.4900 168° South 408 470 17,800 1,380 Climbing Chicago Center
11:01AM 40.9278 -87.4600 168° South 406 467 19,400 1,440 Climbing Chicago Center
11:02AM 40.8181 -87.4311 169° South 404 465 20,800 1,440 Climbing Chicago Center
11:03AM 40.6853 -87.3967 169° South 405 466 22,400 1,200 Climbing Chicago Center
11:04AM 40.5711 -87.3661 169° South 417 480 23,400 960 Climbing Chicago Center
11:05AM 40.4550 -87.3325 168° South 427 491 24,400 960 Climbing Chicago Center
11:06AM 40.3372 -87.2408 149° Southeast 455 524 25,500 960 Climbing Chicago Center
11:07AM 40.2278 -87.1528 148° Southeast 460 529 26,500 960 Climbing Chicago Center
11:08AM 40.1175 -87.0631 148° Southeast 464 534 27,500 1,020 Climbing Chicago Center
11:09AM 40.0228 -86.9889 149° Southeast 467 537 28,400 1,020 Climbing Indianapolis Center
11:10AM 39.9117 -86.8992 148° Southeast 467 537 29,400 960 Climbing Indianapolis Center
11:11AM 39.8006 -86.8094 148° Southeast 469 540 30,400 960 Climbing Indianapolis Center
11:12AM 39.6881 -86.7206 149° Southeast 473 544 31,500 1,020 Climbing Indianapolis Center
11:13AM 39.5747 -86.6303 148° Southeast 480 552 32,500 720 Climbing Indianapolis Center
11:14AM 39.4400 -86.5247 149° Southeast 487 560 33,000 240 Climbing Indianapolis Center
11:15AM 39.3222 -86.4314 148° Southeast 494 568 33,000  Level Indianapolis Center
11:16AM 39.2031 -86.3394 149° Southeast 496 571 33,000  Level Indianapolis Center
11:17AM 39.0836 -86.2458 149° Southeast 500 575 33,000  Level Indianapolis Center
11:18AM 38.9633 -86.1525 149° Southeast 502 578 33,000  Level Indianapolis Center
11:19AM 38.8339 -86.0519 149° Southeast 502 578 33,000  Level Indianapolis Center
11:20AM 38.7131 -85.9592 149° Southeast 502 578 33,000  Level Indianapolis Center
11:21AM 38.5925 -85.8672 149° Southeast 501 577 33,000 -60 Level Indianapolis Center
11:22AM 38.4733 -85.7753 149° Southeast 497 572 32,900 -540 Descending Indianapolis Center
11:23AM 38.3536 -85.6844 149° Southeast 496 571 32,000 -960 Descending Indianapolis Center
11:24AM 38.2339 -85.5936 149° Southeast 497 572 31,000 -540 Descending Indianapolis Center
11:25AM 38.1161 -85.5050 149° Southeast 489 563 31,000  Level Indianapolis Center
11:26AM 37.9792 -85.4019 149° Southeast 473 544 31,000  Level Indianapolis Center
11:27AM 37.8611 -85.3156 150° Southeast 483 556 31,000  Level Indianapolis Center
11:28AM 37.7406 -85.2228 149° Southeast 487 560 31,000  Level Indianapolis Center
11:29AM 37.6203 -85.1381 151° Southeast 494 568 31,000 -540 Level Indianapolis Center
11:31AM 37.4992 -85.0606 153° Southeast 490 564 29,900 -1,320 Descending Indianapolis Center
11:32AM 37.3778 -84.9828 153° Southeast 490 564 28,300 -960 Descending Indianapolis Center
11:33AM 37.2572 -84.9047 153° Southeast 490 564 28,000 -780 Descending Indianapolis Center
11:34AM 37.1361 -84.8269 153° Southeast 488 562 26,700 -1,620 Descending Indianapolis Center
11:35AM 37.0131 -84.7486 153° Southeast 478 550 24,700 -1,980 Descending Indianapolis Center
11:36AM 36.8972 -84.6736 153° Southeast 469 540 22,700 -2,100 Descending Indianapolis Center
11:37AM 36.7647 -84.5900 153° Southeast 447 514 20,400 -2,100 Descending Indianapolis Center
11:38AM 36.6653 -84.5042 145° Southeast 444 511 18,400 -1,680 Descending Indianapolis Center
11:39AM 36.5781 -84.4147 141° Southeast 444 511 17,000 -1,800 Descending Indianapolis Center
11:40AM 36.4717 -84.3114 142° Southeast 441 507 14,800 -2,040 Descending Indianapolis Center
11:41AM 36.3817 -84.2206 141° Southeast 423 487 12,800 -1,920 Descending Indianapolis Center
11:42AM 36.3147 -84.1547 142° Southeast 415 478 11,400 -1,020 Descending Atlanta Center
11:43AM 36.2375 -84.1083 154° Southeast 374 430 11,000 -360 Descending Atlanta Center
11:44AM 36.1667 -84.0903 168° South 297 342 10,700 -840 Descending Atlanta Center
11:45AM 36.1019 -84.0747 169° South 259 298 9,400 -1,320 Descending Atlanta Center
11:46AM 36.0333 -84.0567 168° South 259 298 8,100 -720 Descending Atlanta Center
11:47AM 35.9664 -84.0389 168° South 259 298 8,000 -480 Descending Atlanta Center
11:48AM 35.8997 -84.0336 176° South 254 292 7,200 -780 Descending Atlanta Center
11:49AM 35.8539 -84.0797 219° Southwest 217 250 6,500 -1,140 Descending Atlanta Center
11:50AM 35.8122 -84.1233 220° Southwest 204 235 5,000 -1,260 Descending Atlanta Center
11:51AM 35.7786 -84.1744 231° Southwest 198 228 4,000 -1,020 Descending Atlanta Center